Flight Track Log - Related Links

Times and Time Zones

All times are in EDT time to prevent confusion due to time zone crossing. See the NCB1851 flight status page for this flight to view local times or setup timezone preferences in your user account.

Time Position Orientation Groundspeed Altitude Reporting Facility
EDT Latitude Longitude Course Direction KTS MPH feet Rate Location/Type
Thu 12:02:38 PM 53.3167 -113.5833 61° Northeast 110 127 3,100  Level Edmonton Center
Thu 12:03:38 PM 53.3333 -113.5333 113° Southeast 150 173 4,300 1,100 Climbing Edmonton Center
Thu 12:04:38 PM 53.3167 -113.4667 180° South 180 207 5,300 1,100 Climbing Edmonton Center
Thu 12:05:38 PM 53.2667 -113.4667 191° South 180 207 6,500 1,150 Climbing Edmonton Center
Thu 12:06:38 PM 53.2167 -113.4833 189° South 180 207 7,600 1,100 Climbing Edmonton Center
Thu 12:07:38 PM 53.1500 -113.5000 169° South 190 219 8,700 1,100 Climbing Edmonton Center
Thu 12:08:38 PM 53.1000 -113.4833 191° South 200 230 9,800 1,200 Climbing Edmonton Center
Thu 12:09:38 PM 53.0500 -113.5000 180° South 200 230 11,100 1,150 Climbing Edmonton Center
Thu 12:10:38 PM 53.0000 -113.5000 180° South 190 219 12,100 1,100 Climbing Edmonton Center
Thu 12:11:38 PM 52.9333 -113.5000 191° South 200 230 13,300 1,150 Climbing Edmonton Center
Thu 12:12:38 PM 52.8833 -113.5167 180° South 200 230 14,400 1,000 Climbing Edmonton Center
Thu 12:13:38 PM 52.8333 -113.5167 187° South 200 230 15,300 850 Climbing Edmonton Center
Thu 12:14:38 PM 52.7500 -113.5333 169° South 210 242 16,100 850 Climbing Edmonton Center
Thu 12:15:38 PM 52.7000 -113.5167 189° South 210 242 17,000 450 Climbing Edmonton Center
Thu 12:16:38 PM 52.6333 -113.5333 189° South 230 265 17,000  Level Edmonton Center
Thu 12:17:38 PM 52.5667 -113.5500 180° South 240 276 17,000  Level Edmonton Center
Thu 12:18:38 PM 52.5000 -113.5500 180° South 250 288 17,000  Level Edmonton Center
Thu 12:19:38 PM 52.4333 -113.5500 180° South 250 288 17,000  Level Edmonton Center
Thu 12:20:38 PM 52.3667 -113.5500 189° South 250 288 17,000  Level Edmonton Center
Thu 12:21:38 PM 52.3000 -113.5667 189° South 250 288 17,000  Level Edmonton Center
Thu 12:22:38 PM 52.2333 -113.5833 171° South 250 288 17,000  Level Edmonton Center
Thu 12:23:38 PM 52.1667 -113.5667 187° South 250 288 17,000  Level Edmonton Center
Thu 12:24:38 PM 52.0833 -113.5833 189° South 260 299 17,000  Level Edmonton Center
Thu 12:25:38 PM 52.0167 -113.6000 187° South 260 299 17,000 -450 Level Edmonton Center
Thu 12:26:38 PM 51.9333 -113.6167 180° South 260 299 16,100 -1,150 Descending Edmonton Center
Thu 12:27:38 PM 51.8667 -113.6167 187° South 280 322 14,700 -1,500 Descending Edmonton Center
Thu 12:28:38 PM 51.7833 -113.6333 189° South 280 322 13,100 -1,500 Descending Edmonton Center
Thu 12:29:38 PM 51.7167 -113.6500 194° South 270 311 11,700 -1,150 Descending Edmonton Center
Thu 12:30:38 PM 51.6333 -113.6833 189° South 260 299 10,800 -750 Descending Edmonton Center
Thu 12:31:38 PM 51.5667 -113.7000 212° Southwest 240 276 10,200 -650 Descending Edmonton Center
Thu 12:32:38 PM 51.5167 -113.7500 197° South 230 265 9,500 -750 Descending Edmonton Center
Thu 12:33:38 PM 51.4500 -113.7833 237° Southwest 230 265 8,700 -750 Descending Edmonton Center
Thu 12:34:38 PM 51.4167 -113.8667 255° West 230 265 8,000 -700 Descending Edmonton Center
Thu 12:35:38 PM 51.4000 -113.9667 223° Southwest 230 265 7,300 -600 Descending Edmonton Center
Thu 12:36:38 PM 51.3667 -114.0167 197° South 200 230 6,800 -400 Descending Edmonton Center
Thu 12:37:38 PM 51.3000 -114.0500 171° South 200 230 6,500 -250 Descending Edmonton Center
Thu 12:38:38 PM 51.2333 -114.0333 192° South 200 230 6,300 -600 Descending Edmonton Center
Thu 12:39:38 PM 51.1833 -114.0500 180° South 190 219 5,300 -950 Descending Edmonton Center
Thu 12:40:38 PM 51.1500 -114.0500 168° South 170 196 4,400 -750 Descending Edmonton Center
Thu 12:41:38 PM 51.1000 -114.0333 168° South 130 150 3,800 -600 Descending Edmonton Center

Login

Don't have an account? Register now (free) for customized features, flight alerts, and more!